Re: [gembud] stations.txt updates

nevermind...just did a search for the icao, the search box covered up the 
updates
----- Original Message ----- 
From: Jeff Lake - Admin 
To: gembud@xxxxxxxxxxxxxxxx 
Sent: Monday, July 12, 2010 9:26 AM
Subject: [gembud] stations.txt updates


whom updates the stations.txt found at
http://www.rap.ucar.edu/weather/surface/stations.txt ??
ICAO KQAJ has been shipped overseas somewhere,
cause I seriously doubt its 48C with blowing dust
in North Carolina
NC BOGUE FIELD KQAJ                    34 40N  077 02W    7            Z       
8 US
METAR
KQAJ 121255Z 34017G21KT 8000 BLDU CLR 48/04 A2961 RMK SLP011
      WND DATA ESTMD ALSTG/SLP ESTMD=
 Jeff Lake K8JSLhttp://www.MichiganWxSystem.comhttps://www.TheWeatherCenter.net

--------------------------------------------------------------------------------


_______________________________________________
gembud mailing list
gembud@xxxxxxxxxxxxxxxx
For list information or to unsubscribe,  visit: 
http://www.unidata.ucar.edu/mailing_lists/